Tiempo atmosférico en la estación meteorológica de Cillórigo de Liébana, Tama, Cantabria (250 m.)



Fecha
DESCASC
Temp. máxima en grados centígrados (hora)
DESCASC
Temp. mínima en grados centígrados (hora)
DESCASC
Temp. media en grados centígrados
DESCASC
Racha de viento máxima en m/sg (hora)
DESCASC
Velocidad máxima media en intervalos de 10 minutos(hora)
DESCASC
Precipitaciones diarias en mm
DESCASC
Precipitaciones de 00:00 a 06:00 en mm
DESCASC
Precipitaciones de 06:00 a 12:00 en mm
DESCASC
Precipitaciones de 12:00 a 18:00 en mm
DESCASC
Precipitaciones de 18:00 a 24:00 en mm
DESCASC
16-01-2020 18.2 (13:50) 8.7 (00:30) 13.5 10.56 (19:10) 6.67 (00:50) 0 0 0 0 0
15-01-2020 18.2 (15:40) 7.2 (20:10) 12.7 14.44 (06:10) 6.39 (13:50) 0 0 0 0 0
14-01-2020 15.7 (13:20) 11.9 (07:50) 13.8 12.22 (11:00) 6.67 (11:00) 0.2 0 0 0.2 0
13-01-2020 18.1 (16:00) -2.7 (07:20) 7.7 13.06 (23:00) 5.83 (23:00) 0.2 0 0.2 0 0
12-01-2020 10.8 (15:30) -4.1 (-00:0) 3.4 1.94 (16:20) 1.11 (15:30) 0 0 0 0 0
11-01-2020 12.4 (15:40) -1.2 (-00:0) 5.6 2.22 (04:50) 1.39 (07:50) 0 0 0 0 0
10-01-2020 10.1 (15:10) 1.7 (00:00) 5.9 8.61 (12:40) 4.72 (12:30) 0.2 0 0 0.2 0
09-01-2020 20.1 (15:20) -1.1 (-00:0) 9.5 13.61 (15:40) 7.78 (15:50) 0 0 0 0 0
08-01-2020 12.9 (15:10) -1.4 (-00:0) 5.7 2.22 (16:50) 1.11 (16:10) 0 0 0 0 0
07-01-2020 11.6 (15:10) -2.3 (-00:0) 4.7 1.94 (17:00) 1.11 (15:50) 0 0 0 0 0
06-01-2020 11.7 (15:10) -3.1 (-00:0) 4.3 6.94 (15:20) 3.33 (15:30) 0.2 0 0.2 0 0
05-01-2020 11.6 (15:10) -0.7 (-00:0) 5.5 4.17 (08:50) 2.78 (09:40) 0 0 0 0 0
04-01-2020 11.6 (15:30) 1.8 (00:00) 6.7 3.89 (15:40) 2.22 (06:30) 0 0 0 0 0
03-01-2020 8.3 (15:40) -0.7 (-00:0) 3.8 2.22 (15:40) 1.39 (15:40) 0 0 0 0 0
02-01-2020 10.2 (15:40) -3.3 (-00:0) 3.4 2.5 (23:30) 1.11 (23:30) 0 0 0 0 0
01-01-2020 8.1 (14:10) -3.8 (-00:0) 2.2 2.22 (16:50) 0.83 (16:20) 0.2 0 0.2 0 0
31-12-2019 10.5 (16:10) -3.9 (-00:0) 3.3 3.06 (16:10) 1.39 (16:10) 0 0 0 0 0
30-12-2019 -- (--) -- (--) -- -- (--) -- (--) -- 0 0.2 0 --
29-12-2019 11.2 (15:30) -3.6 (-00:0) 3.8 1.94 (17:10) 0.83 (02:20) 0 0 0 0 0
28-12-2019 10.9 (15:30) -3.4 (-00:0) 3.7 1.67 (15:50) 1.11 (15:50) 0 0 0 0 0
27-12-2019 10.3 (15:00) -1.3 (-00:0) 4.5 2.5 (16:20) 1.39 (16:10) 0 0 0 0 0
26-12-2019 14.4 (14:50) 1.9 (00:00) 8.1 6.94 (14:00) 3.89 (14:00) 0 0 0 0 0
25-12-2019 15.9 (15:20) 3.8 (00:00) 9.8 3.61 (23:59) 1.67 (22:30) 0 0 0 0 0
24-12-2019 15.7 (15:20) 3.4 (00:00) 9.5 4.17 (19:00) 2.5 (18:30) 0 0 0 0 0
23-12-2019 15.3 (14:30) 2.5 (00:00) 8.9 4.72 (15:00) 2.78 (15:10) 0 0 0 0 0
22-12-2019 16.2 (13:00) 5.3 (00:00) 10.8 15.28 (12:10) 8.61 (12:10) 0.6 0.6 0 0 0
21-12-2019 19.9 (14:20) 4.6 (00:00) 12.2 16.39 (16:10) 8.89 (16:50) 0.6 0.2 0 0 0.4
20-12-2019 12.6 (13:00) 6.2 (00:00) 9.4 10.83 (12:10) 5.56 (02:40) 9.8 5.6 0 2.8 1.4

Gráficas

Temp. máximas Temp. mínimas Temp. medias Precipitaciones Rachas de viento máximas Velocidades máximas media en intervalos de 10 minutos

Datos horarios

Fecha y hora oficial Temperatura (ºC) Velocidad del viento (km/h) Dirección del viento Racha (km/h) Dirección de racha Precipitación (mm) Presión (hPa) Tendencia (hPa) Humedad (%)
2020-01-18 23:00:00 6.6 0 Calma 5 Sudeste 0 -- -- 94
2020-01-18 22:00:00 6.9 0 Calma 10 Sudeste 0 -- -- 92
2020-01-18 21:00:00 7.1 6 Sudeste 11 Sur 0 -- -- 91
2020-01-18 20:00:00 6.6 3 Sur 16 Sudeste 0 -- -- 91
2020-01-18 19:00:00 7.8 6 Sur 12 Sudeste 0 -- -- 86
2020-01-18 18:00:00 8.7 3 Oeste 18 Sudeste 0.2 -- -- 84
2020-01-18 17:00:00 9.7 10 Norte 58 Norte 0.4 -- -- 70
2020-01-18 16:00:00 14.7 13 Noroeste 50 Noroeste 0 -- -- 55
2020-01-18 15:00:00 14.6 4 Sudeste 14 Oeste 0 -- -- 54
2020-01-18 14:00:00 15.3 2 Sudoeste 37 Sur 0 -- -- 49
2020-01-18 13:00:00 15.2 11 Sur 36 Sur 0 -- -- 48
2020-01-18 12:00:00 14.9 19 Sudeste 42 Sudeste 0 -- -- 46
2020-01-18 11:00:00 13.2 13 Sur 33 Sur 0 -- -- 51
2020-01-18 10:00:00 9.2 11 Sur 18 Sur 0 -- -- 63
2020-01-18 09:00:00 8.4 10 Sudeste 23 Sudeste 0 -- -- 63
2020-01-18 08:00:00 7.5 15 Sudeste 26 Sudeste 0 -- -- 65
2020-01-18 07:00:00 6.2 17 Sudeste 28 Sudeste 0 -- -- 75
2020-01-18 06:00:00 4.1 0 Calma 8 Sudeste 0 -- -- 90
2020-01-18 05:00:00 4.1 0 Calma 7 Nordeste 0 -- -- 89
2020-01-18 04:00:00 3.8 0 Calma 6 Sudoeste 0 -- -- 91
2020-01-18 03:00:00 3.8 0 Calma 5 Sudeste 0 -- -- 91
2020-01-18 02:00:00 3.9 0 Calma 4 Norte 0 -- -- 89
2020-01-18 01:00:00 3.8 3 Sur 5 Sur 0 -- -- 90
2020-01-18 00:00:00 3.6 0 Calma 3 Sudeste 0 -- -- 90
2020-01-17 23:00:00 3.7 0 Calma 4 Sur 0 -- -- 88
2020-01-17 22:00:00 4.5 0 Calma 2 Sudeste 0 -- -- 85
2020-01-17 21:00:00 5.7 0 Calma 9 Sudeste 0 -- -- 79
2020-01-17 20:00:00 6.9 4 Sudeste 8 Sudeste 0 -- -- 74
2020-01-17 19:00:00 9.1 0 Calma 17 Noroeste 0 -- -- 65
2020-01-17 18:00:00 10.6 9 Norte 28 Este 0 -- -- 58
2020-01-17 17:00:00 11.6 11 Norte 26 Noroeste 0 -- -- 51
2020-01-17 16:00:00 13.1 10 Norte 25 Norte 0 -- -- 44
2020-01-17 15:00:00 13.6 12 Norte 25 Este 0 -- -- 44
2020-01-17 14:00:00 12.9 11 Norte 24 Norte 0 -- -- 48
2020-01-17 13:00:00 11.8 7 Norte 15 Norte 0 -- -- 58
2020-01-17 12:00:00 11.4 8 Noroeste 23 Noroeste 0 -- -- 61
2020-01-17 11:00:00 8.6 5 Sur 13 Sudeste 0 -- -- 75
2020-01-17 10:00:00 5.6 4 Sur 8 Sur 0 -- -- 85
2020-01-17 09:00:00 6.9 0 Calma 21 Nordeste 0 -- -- 80
2020-01-17 08:00:00 10.5 9 Norte 24 Norte 0 -- -- 65
2020-01-17 07:00:00 6.7 0 Calma 11 Este 0 -- -- 85
2020-01-17 06:00:00 7.4 5 Noroeste 11 Oeste 0 -- -- 84
2020-01-17 05:00:00 7.9 3 Este 12 Este 0 -- -- 82
2020-01-17 04:00:00 8 0 Calma 7 Oeste 0 -- -- 79
2020-01-17 03:00:00 8.6 3 Sur 6 Sur 0 -- -- 74
2020-01-17 02:00:00 9.8 3 Sudoeste 15 Sur 0 -- -- 69
2020-01-17 01:00:00 11.6 5 Sur 17 Sudoeste 0 -- -- 61
2020-01-17 00:00:00 12.9 2 Sudeste 25 Sur 0 -- -- 56
2020-01-16 23:00:00 12.3 11 Sur 21 Sur 0 -- -- 62
2020-01-16 22:00:00 12.7 9 Sur 21 Sudoeste 0 -- -- 60
2020-01-16 21:00:00 13.2 9 Sur 27 Oeste 0 -- -- 56
2020-01-16 20:00:00 13.9 15 Sur 38 Sur 0 -- -- 53
2020-01-16 19:00:00 15.2 16 Sur 36 Sudoeste 0 -- -- 47
2020-01-16 18:00:00 16.1 13 Sudoeste 33 Sudoeste 0 -- -- 45
2020-01-16 17:00:00 16.8 12 Sur 32 Sudoeste 0 -- -- 45
2020-01-16 16:00:00 17.5 14 Sur 33 Sur 0 -- -- 42
2020-01-16 15:00:00 17.8 15 Sur 34 Sur 0 -- -- 41
2020-01-16 14:00:00 18.1 13 Sudoeste 34 Sur 0 -- -- 44
2020-01-16 13:00:00 16.2 10 Sur 32 Sudeste 0 -- -- 59
2020-01-16 12:00:00 16.2 15 Sur 30 Sudeste 0 -- -- 59
2020-01-16 11:00:00 15.6 11 Sur 35 Sur 0 -- -- 57
2020-01-16 10:00:00 15.2 17 Sur 37 Sur 0 -- -- 61
2020-01-16 09:00:00 15.5 12 Sur 37 Sur 0 -- -- 57
2020-01-16 08:00:00 15.9 17 Sur 32 Sur 0 -- -- 56
2020-01-16 07:00:00 14.6 11 Sur 23 Sudoeste 0 -- -- 57
2020-01-16 06:00:00 14.4 9 Sur 32 Sudoeste 0 -- -- 61
2020-01-16 05:00:00 15.5 8 Sur 28 Sudoeste 0 -- -- 57
2020-01-16 04:00:00 14 10 Sur 19 Sudoeste 0 -- -- 64
2020-01-16 03:00:00 11.1 15 Sudeste 27 Sudeste 0 -- -- 68
2020-01-16 02:00:00 10.3 18 Sudeste 35 Sudeste 0 -- -- 65
2020-01-16 01:00:00 8.9 22 Sudeste 32 Sur 0 -- -- 67
2020-01-16 00:00:00 9.7 18 Sudeste 32 Sudeste 0 -- -- 63
2020-01-15 23:00:00 8.7 18 Sudeste 30 Sudeste 0 -- -- 68
2020-01-15 22:00:00 8.3 22 Sudeste 34 Sur 0 -- -- 73
2020-01-15 21:00:00 8.1 19 Sudeste 29 Sudeste 0 -- -- 76
2020-01-15 20:00:00 7.4 3 Sur 12 Sudoeste 0 -- -- 81
2020-01-15 19:00:00 9.1 0 Calma 9 Nordeste 0 -- -- 80
2020-01-15 18:00:00 11.6 4 Norte 24 Nordeste 0 -- -- 75
2020-01-15 17:00:00 14.3 4 Norte 29 Sur 0 -- -- 60
2020-01-15 16:00:00 17.6 11 Sudoeste 22 Oeste 0 -- -- 37
2020-01-15 15:00:00 18.1 8 Sur 27 Sur 0 -- -- 40
2020-01-15 14:00:00 17.2 14 Sur 46 Sur 0 -- -- 44
2020-01-15 13:00:00 17 9 Sudeste 21 Sur 0 -- -- 47
2020-01-15 12:00:00 15.2 10 Sur 19 Sudoeste 0 -- -- 55
2020-01-15 11:00:00 14.7 6 Sudeste 25 Sudeste 0 -- -- 55
2020-01-15 10:00:00 14.6 12 Sur 30 Sudeste 0 -- -- 54
2020-01-15 09:00:00 14.6 9 Sur 36 Sudoeste 0 -- -- 52
2020-01-15 08:00:00 14.7 13 Sur 31 Sudoeste 0 -- -- 52
2020-01-15 07:00:00 14.9 14 Sudoeste 52 Sur 0 -- -- 53
2020-01-15 06:00:00 15.8 14 Sudoeste 40 Sudoeste 0 -- -- 46
2020-01-15 05:00:00 15.4 14 Sudoeste 40 Sur 0 -- -- 48
2020-01-15 04:00:00 15.1 16 Sudoeste 37 Sudoeste 0 -- -- 49
2020-01-15 03:00:00 14.6 14 Sur 38 Sudeste 0 -- -- 51
2020-01-15 02:00:00 14.8 19 Sudeste 40 Sur 0 -- -- 49
2020-01-15 01:00:00 14 15 Sudoeste 49 Sur 0 -- -- 52
2020-01-15 00:00:00 14 9 Oeste 32 Sudeste 0 -- -- 49
2020-01-14 23:00:00 14.2 15 Sur 36 Sudeste 0 -- -- 47
2020-01-14 22:00:00 13.7 6 Este 26 Sudoeste 0 -- -- 46
2020-01-14 21:00:00 13.7 9 Sur 30 Oeste 0 -- -- 48
2020-01-14 20:00:00 14.3 12 Sudoeste 32 Oeste 0 -- -- 46
2020-01-14 19:00:00 13.8 10 Sudoeste 28 Noroeste 0 -- -- 46
2020-01-14 18:00:00 14.1 13 Sudoeste 32 Oeste 0 -- -- 45
2020-01-14 17:00:00 13.8 13 Sudoeste 39 Oeste 0 -- -- 47
2020-01-14 16:00:00 14.4 16 Sudoeste 37 Sur 0 -- -- 45
2020-01-14 15:00:00 15.2 12 Sudoeste 34 Sudoeste 0.2 -- -- 40
2020-01-14 14:00:00 15.4 10 Sudoeste 39 Sur 0 -- -- 42
2020-01-14 13:00:00 15.5 20 Sur 36 Sudeste 0 -- -- 41
2020-01-14 12:00:00 14 20 Sur 41 Sudeste 0 -- -- 47
2020-01-14 11:00:00 13.2 24 Sudeste 44 Sudeste 0 -- -- 48
2020-01-14 10:00:00 12.2 10 Sur 33 Sudoeste 0 -- -- 53
2020-01-14 09:00:00 12.1 13 Sudoeste 29 Sur 0 -- -- 53
2020-01-14 08:00:00 12 16 Sudoeste 32 Sudoeste 0 -- -- 54
2020-01-14 07:00:00 12.2 10 Sudoeste 27 Sudoeste 0 -- -- 54
2020-01-14 06:00:00 12.6 11 Sudoeste 26 Sudoeste 0 -- -- 51
2020-01-14 05:00:00 12.7 13 Sur 26 Sur 0 -- -- 48
2020-01-14 04:00:00 12.4 11 Sur 27 Sudoeste 0 -- -- 47
2020-01-14 03:00:00 12.1 13 Sudoeste 27 Sudoeste 0 -- -- 47
2020-01-14 02:00:00 12.1 10 Sur 33 Sudeste 0 -- -- 45
2020-01-14 01:00:00 12.9 19 Sur 42 Sudeste 0 -- -- 40
2020-01-14 00:00:00 12.8 13 Sur 40 Sur 0 -- -- 39
2020-01-13 23:00:00 11.1 21 Sur 47 Sudeste 0 -- -- 39
2020-01-13 22:00:00 10.5 9 Sudoeste 26 Sudoeste 0 -- -- 40
2020-01-13 21:00:00 10.1 7 Sudoeste 26 Oeste 0 -- -- 40
2020-01-13 20:00:00 11.2 10 Oeste 26 Sur 0 -- -- 36
2020-01-13 19:00:00 12.8 10 Sur 26 Sur 0 -- -- 30
2020-01-13 18:00:00 14.2 14 Sur 36 Sur 0 -- -- 26
2020-01-13 17:00:00 16.6 17 Sur 38 Sudeste 0 -- -- 22
2020-01-13 16:00:00 18.1 14 Sur 42 Sudeste 0 -- -- 20
2020-01-13 15:00:00 11.4 4 Noroeste 10 Noroeste 0 -- -- 60
2020-01-13 14:00:00 8.9 3 Noroeste 7 Noroeste 0 -- -- 60
2020-01-13 13:00:00 5.9 2 Sudeste 7 Sudeste 0 -- -- 72
2020-01-13 12:00:00 1.8 0 Calma 4 Sur 0 -- -- 96
2020-01-13 11:00:00 -0.3 0 Calma 4 Sudeste 0.2 -- -- 98
2020-01-13 10:00:00 -1.9 0 Calma 6 Sudeste 0 -- -- 98
2020-01-13 09:00:00 -2.2 2 Sur 6 Sudeste 0 -- -- 98
2020-01-13 08:00:00 -2.5 2 Este 5 Nordeste 0 -- -- 98
2020-01-13 07:00:00 -2.6 2 Noroeste 5 Sur 0 -- -- 98
2020-01-13 06:00:00 -2.4 0 Calma 6 Noroeste 0 -- -- 98
2020-01-13 05:00:00 -2.5 0 Calma 3 Sur 0 -- -- 98
2020-01-13 04:00:00 -2.3 0 Calma 3 Sudeste 0 -- -- 98
2020-01-13 03:00:00 -2 0 Calma 2 Sudeste 0 -- -- 97
2020-01-13 02:00:00 -1.6 0 Calma 4 Sur 0 -- -- 97
2020-01-13 01:00:00 -1 0 Calma 3 Oeste 0 -- -- 96
2020-01-13 00:00:00 -0.5 0 Calma 4 Este 0 -- -- 96
2020-01-12 23:00:00 0.2 0 Calma 3 Este 0 -- -- 96
2020-01-12 22:00:00 0.6 0 Calma 3 Sudeste 0 -- -- 94
2020-01-12 21:00:00 1.5 0 Calma 3 Sudoeste 0 -- -- 93
2020-01-12 20:00:00 2.5 0 Calma 4 Sudeste 0 -- -- 91
2020-01-12 19:00:00 3.6 0 Calma 2 Sur 0 -- -- 87
2020-01-12 18:00:00 6.4 0 Calma 4 Sudoeste 0 -- -- 80
2020-01-12 17:00:00 8.2 2 Sudoeste 7 Oeste 0 -- -- 73
2020-01-12 16:00:00 10.3 3 Oeste 6 Sudoeste 0 -- -- 62
2020-01-12 15:00:00 10.4 0 Calma 4 Oeste 0 -- -- 59
2020-01-12 14:00:00 8 2 Oeste 5 Noroeste 0 -- -- 61
2020-01-12 13:00:00 5.4 0 Calma 3 Sudoeste 0 -- -- 76
2020-01-12 12:00:00 1.7 0 Calma 4 Sur 0 -- -- 88
2020-01-12 11:00:00 -1 0 Calma 3 Sudeste 0 -- -- 98
2020-01-12 10:00:00 -3.7 0 Calma 4 Sudeste 0 -- -- 97
2020-01-12 09:00:00 -4.1 0 Calma 3 Oeste 0 -- -- 97
2020-01-12 08:00:00 -3.7 2 Sudeste 4 Este 0 -- -- 97
2020-01-12 07:00:00 -3.5 0 Calma 3 Sudeste 0 -- -- 97
2020-01-12 06:00:00 -3.2 0 Calma 4 Noroeste 0 -- -- 97
2020-01-12 05:00:00 -2.9 0 Calma 3 Sudeste 0 -- -- 97
2020-01-12 04:00:00 -2.6 0 Calma 2 Este 0 -- -- 97
2020-01-12 03:00:00 -2.4 0 Calma 3 Sur 0 -- -- 97
2020-01-12 02:00:00 -1.9 0 Calma 2 Sudeste 0 -- -- 97
2020-01-12 01:00:00 -1.5 0 Calma -- -- 0 -- -- 96
2020-01-12 00:00:00 -0.9 0 Calma 3 Sur 0 -- -- 96
2020-01-11 23:00:00 -0.4 0 Calma 2 Sur 0 -- -- 95
2020-01-11 22:00:00 0.5 0 Calma -- -- 0 -- -- 94
2020-01-11 21:00:00 1.6 0 Calma 2 Sudoeste 0 -- -- 92
2020-01-11 20:00:00 3 0 Calma 4 Sudeste 0 -- -- 89
2020-01-11 19:00:00 4.8 0 Calma 6 Sudoeste 0 -- -- 86
2020-01-11 18:00:00 7.6 0 Calma 7 Sur 0 -- -- 78
2020-01-11 17:00:00 9.8 0 Calma 5 Sudoeste 0 -- -- 73
2020-01-11 16:00:00 12.3 3 Sudoeste 4 Oeste 0 -- -- 62
2020-01-11 15:00:00 11.5 2 Sudoeste 4 Oeste 0 -- -- 55
2020-01-11 14:00:00 9.1 0 Calma 4 Sur 0 -- -- 67
2020-01-11 13:00:00 6.6 0 Calma 4 Sur 0 -- -- 78
2020-01-11 12:00:00 3.1 0 Calma 4 Sur 0 -- -- 92
2020-01-11 11:00:00 0.3 0 Calma 3 Sudeste 0 -- -- 99
2020-01-11 10:00:00 -1.1 2 Sudeste 4 Sudeste 0 -- -- 98
2020-01-11 09:00:00 -0.8 2 Sur 5 Sur 0 -- -- 98
2020-01-11 08:00:00 -0.7 3 Sudeste 6 Sudeste 0 -- -- 99
2020-01-11 07:00:00 -0.6 3 Sur 6 Sudeste 0 -- -- 98
2020-01-11 06:00:00 -0.4 3 Sur 5 Sur 0 -- -- 98
2020-01-11 05:00:00 -0.2 4 Sudeste 8 Sudeste 0 -- -- 99
2020-01-11 04:00:00 -0.4 0 Calma 3 Sur 0 -- -- 98
2020-01-11 03:00:00 -0.3 0 Calma 2 Sur 0 -- -- 97
2020-01-11 02:00:00 0 0 Calma 3 Sudeste 0 -- -- 97
2020-01-11 01:00:00 0.9 0 Calma 3 Noroeste 0 -- -- 97
2020-01-11 00:00:00 1.7 0 Calma 2 Sur 0 -- -- 95
2020-01-10 23:00:00 3 0 Calma 4 Sudeste 0 -- -- 94
2020-01-10 22:00:00 4.9 0 Calma 3 Este 0 -- -- 92
2020-01-10 21:00:00 5.6 0 Calma 2 Oeste 0 -- -- 92
2020-01-10 20:00:00 5.7 0 Calma 3 Sur 0 -- -- 90
2020-01-10 19:00:00 6.5 0 Calma 8 Sudoeste 0 -- -- 85
2020-01-10 18:00:00 9.1 6 Oeste 14 Noroeste 0 -- -- 77
2020-01-10 17:00:00 9.6 6 Norte 21 Norte 0 -- -- 72
2020-01-10 16:00:00 9.7 12 Norte 23 Nordeste 0 -- -- 72
2020-01-10 15:00:00 10 8 Norte 28 Norte 0 -- -- 68
2020-01-10 14:00:00 9.7 14 Norte 24 Nordeste 0 -- -- 72
2020-01-10 13:00:00 9.3 13 Nordeste 31 Nordeste 0.2 -- -- 74
2020-01-10 12:00:00 9.7 9 Norte 22 Norte 0 -- -- 67
2020-01-10 11:00:00 7 8 Sudeste 22 Sudeste 0 -- -- 74
2020-01-10 10:00:00 5.9 14 Sudeste 26 Sur 0 -- -- 77
2020-01-10 09:00:00 5.2 11 Sur 23 Sur 0 -- -- 82
2020-01-10 08:00:00 4.6 10 Sudoeste 25 Sur 0 -- -- 82
2020-01-10 07:00:00 4.1 5 Sur 22 Sudeste 0 -- -- 84
2020-01-10 06:00:00 3.7 4 Sudeste 18 Sudeste 0 -- -- 90
2020-01-10 05:00:00 5.1 8 Sur 26 Sudeste 0 -- -- 84
2020-01-10 04:00:00 5.1 3 Sur 23 Sudeste 0 -- -- 88
2020-01-10 03:00:00 4.3 4 Sur 17 Sudeste 0 -- -- 92
2020-01-10 02:00:00 4.6 9 Sudeste 19 Sudeste 0 -- -- 95
2020-01-10 01:00:00 3.9 4 Sudeste 16 Este 0 -- -- 95
2020-01-10 00:00:00 4.6 4 Sudeste 13 Nordeste 0 -- -- 95
2020-01-09 23:00:00 5.1 5 Sur 20 Sudeste 0 -- -- 92
2020-01-09 22:00:00 5.7 11 Sudeste 18 Sudeste 0 -- -- 96
2020-01-09 21:00:00 5.9 2 Sur 6 Este 0 -- -- 92
2020-01-09 20:00:00 8 2 Norte 12 Sur 0 -- -- 87
2020-01-09 19:00:00 10.7 8 Sur 21 Norte 0 -- -- 79
2020-01-09 18:00:00 11.5 10 Noroeste 39 Norte 0 -- -- 74
2020-01-09 17:00:00 13.2 23 Norte 45 Norte 0 -- -- 65
2020-01-09 16:00:00 14.6 17 Noroeste 49 Norte 0 -- -- 65
2020-01-09 15:00:00 19.7 14 Sudeste 32 Sudeste 0 -- -- 42
2020-01-09 14:00:00 18.8 18 Sudeste 39 Sudeste 0 -- -- 48
2020-01-09 13:00:00 9.9 2 Sudoeste 5 Oeste 0 -- -- 77
2020-01-09 12:00:00 6.2 0 Calma 3 Este 0 -- -- 93
2020-01-09 11:00:00 2.2 0 Calma 7 Sur 0 -- -- 100
2020-01-09 10:00:00 -0.6 2 Noroeste 9 Sudoeste 0 -- -- 99
2020-01-09 09:00:00 -1.1 2 Este 5 Noroeste 0 -- -- 99
2020-01-09 08:00:00 -0.9 0 Calma 5 Sur 0 -- -- 99
2020-01-09 07:00:00 -1 0 Calma 6 Sudoeste 0 -- -- 99
2020-01-09 06:00:00 -0.8 0 Calma 5 Sudoeste 0 -- -- 98
2020-01-09 05:00:00 -0.6 0 Calma 9 Sur 0 -- -- 98
2020-01-09 04:00:00 -0.4 0 Calma 5 Sudeste 0 -- -- 98
2020-01-09 03:00:00 -0.1 0 Calma 3 Sudeste 0 -- -- 98
2020-01-09 02:00:00 0.1 0 Calma 3 Sudoeste 0 -- -- 97
2020-01-09 01:00:00 0.2 0 Calma 3 Oeste 0 -- -- 97
2020-01-09 00:00:00 0.7 0 Calma 3 Sur 0 -- -- 96
2020-01-08 23:00:00 1.2 0 Calma 4 Sudoeste 0 -- -- 96
2020-01-08 22:00:00 1.9 2 Sur 4 Sur 0 -- -- 95
2020-01-08 21:00:00 2.5 0 Calma 3 Noroeste 0 -- -- 94
2020-01-08 20:00:00 3.5 0 Calma 3 Sur 0 -- -- 91
2020-01-08 19:00:00 5 0 Calma 2 Sur 0 -- -- 87
2020-01-08 18:00:00 7 0 Calma 6 Sudoeste 0 -- -- 80
2020-01-08 17:00:00 9.8 3 Sudoeste 8 Sudoeste 0 -- -- 70
2020-01-08 16:00:00 12.2 2 Oeste 5 Sudoeste 0 -- -- 65
2020-01-08 15:00:00 12.7 0 Calma 4 Oeste 0 -- -- 58
2020-01-08 14:00:00 11.1 0 Calma 4 Sudoeste 0 -- -- 59
2020-01-08 13:00:00 8.5 0 Calma 3 Sudeste 0 -- -- 71
2020-01-08 12:00:00 4.3 0 Calma 5 Sudeste 0 -- -- 91
2020-01-08 11:00:00 1.3 0 Calma 4 Sur 0 -- -- 100
2020-01-08 10:00:00 -1.2 0 Calma 2 Noroeste 0 -- -- 99
2020-01-08 09:00:00 -1.3 0 Calma 0 Calma 0 -- -- 99
2020-01-08 08:00:00 -1.4 0 Calma 2 Sudeste 0 -- -- 99
2020-01-08 07:00:00 -1.3 0 Calma 2 Sur 0 -- -- 99
2020-01-08 06:00:00 -1 0 Calma 4 Sur 0 -- -- 98
2020-01-08 05:00:00 -1 0 Calma 2 Oeste 0 -- -- 98
2020-01-08 04:00:00 -0.9 0 Calma 2 Sur 0 -- -- 98
2020-01-08 03:00:00 -0.7 0 Calma 4 Sur 0 -- -- 98
2020-01-08 02:00:00 -0.5 0 Calma 2 Sudeste 0 -- -- 97
2020-01-08 01:00:00 -0.3 0 Calma 4 Sudeste 0 -- -- 97
2020-01-08 00:00:00 0.1 0 Calma 2 Oeste 0 -- -- 97
2020-01-07 23:00:00 0.5 0 Calma 3 Sudeste 0 -- -- 96
2020-01-07 22:00:00 1 0 Calma 2 Este 0 -- -- 95
2020-01-07 21:00:00 1.8 0 Calma 2 Este 0 -- -- 94
2020-01-07 20:00:00 2.8 0 Calma 2 Sudeste 0 -- -- 92
2020-01-07 19:00:00 4.1 0 Calma 4 Sudoeste 0 -- -- 88
2020-01-07 18:00:00 6.4 0 Calma 5 Sur 0 -- -- 82
2020-01-07 17:00:00 8.8 4 Sudoeste 7 Sudoeste 0 -- -- 74
2020-01-07 16:00:00 11.1 2 Oeste 6 Oeste 0 -- -- 67
2020-01-07 15:00:00 11.4 0 Calma 4 Oeste 0 -- -- 67
2020-01-07 14:00:00 10.2 0 Calma 4 Oeste 0 -- -- 65
2020-01-07 13:00:00 7.5 0 Calma 4 Oeste 0 -- -- 71
2020-01-07 12:00:00 4.1 0 Calma 3 Sudeste 0 -- -- 89
2020-01-07 11:00:00 0.5 0 Calma 2 Sur 0 -- -- 99
2020-01-07 10:00:00 -1.5 0 Calma 3 Sur 0 -- -- 99
2020-01-07 09:00:00 -2.2 0 Calma 3 Sur 0 -- -- 99
2020-01-07 08:00:00 -2.1 2 Sur 4 Sur 0 -- -- 98
2020-01-07 07:00:00 -1.7 0 Calma 5 Sur 0 -- -- 98
2020-01-07 06:00:00 -1.3 0 Calma 3 Noroeste 0 -- -- 98
2020-01-07 05:00:00 -1.3 0 Calma 2 Sur 0 -- -- 99
2020-01-07 04:00:00 -1.2 0 Calma 3 Oeste 0 -- -- 98
2020-01-07 03:00:00 -0.9 2 Sur 5 Sur 0 -- -- 98
2020-01-07 02:00:00 -0.7 0 Calma 5 Sur 0 -- -- 97
2020-01-07 01:00:00 -0.4 0 Calma 2 Este 0 -- -- 97
2020-01-07 00:00:00 0.2 0 Calma 3 Sur 0 -- -- 96
2020-01-06 23:00:00 0.9 0 Calma 5 Sudeste 0 -- -- 95
2020-01-06 22:00:00 2 0 Calma 7 Sudeste 0 -- -- 93
2020-01-06 21:00:00 3.8 0 Calma 18 Sudeste 0 -- -- 90
2020-01-06 20:00:00 4.5 4 Sur 13 Sudeste 0 -- -- 92
2020-01-06 19:00:00 5 4 Sudeste 6 Sudeste 0 -- -- 90
2020-01-06 18:00:00 7.7 0 Calma 10 Sur 0 -- -- 82
2020-01-06 17:00:00 11.1 4 Norte 17 Norte 0 -- -- 71
2020-01-06 16:00:00 11.6 10 Norte 25 Noroeste 0 -- -- 68
2020-01-06 15:00:00 11.2 0 Calma 10 Sur 0 -- -- 65
2020-01-06 14:00:00 9.2 3 Oeste 6 Noroeste 0 -- -- 66
2020-01-06 13:00:00 6.1 0 Calma 4 Noroeste 0 -- -- 77
2020-01-06 12:00:00 3.2 0 Calma 3 Sudeste 0 -- -- 90
2020-01-06 11:00:00 -0.4 0 Calma 4 Sudoeste 0.2 -- -- 99
2020-01-06 10:00:00 -2.9 0 Calma 4 Sudeste 0 -- -- 98